Time;durP1;ratioP1;P1;durP2;ratioP2;P2;SDS_P1;SDS_P2;PMS_P1;PMS_P2;Temp;Humidity;BMP_temperature;BMP_pressure;BME280_temperature;BME280_humidity;BME280_pressure;Samples;Min_cycle;Max_cycle;Signal;HPM_P1;HPM_P2
2023/09/04 00:00:10;;;;;;;;;;;;;;;11.83;100.00;102704.47;5036151;28;19927;-76
2023/09/04 00:02:36;;;;;;;;;;;;;;;11.84;100.00;102706.22;5046417;28;19916;-76
2023/09/04 00:05:01;;;;;;;;;;;;;;;11.82;100.00;102712.59;5055207;28;20002;-76
2023/09/04 00:07:26;;;;;;;;;;;;;;;11.77;100.00;102707.47;5054358;28;19920;-76
2023/09/04 00:09:51;;;;;;;;;;;;;;;11.75;100.00;102706.69;5052706;28;19960;-75
2023/09/04 00:12:17;;;;;;;;;;;;;;;11.74;100.00;102706.78;5053020;28;20027;-77
2023/09/04 00:14:42;;;;;;;;;;;;;;;11.72;100.00;102703.31;5045769;28;19927;-76
2023/09/04 00:17:07;;;;;;;;;;;;;;;11.72;100.00;102706.84;5057928;28;19952;-76
2023/09/04 00:19:34;;;;;;;;;;;;;;;11.69;100.00;102710.59;5054117;28;20298;-76
2023/09/04 00:21:59;;;;;;;;;;;;;;;11.68;100.00;102706.16;5055000;28;19919;-76
2023/09/04 00:24:25;;;;;;;;;;;;;;;11.66;100.00;102704.47;5035848;28;19920;-76
2023/09/04 00:26:50;;;;;;;;;;;;;;;11.59;100.00;102706.63;5035071;28;20263;-76
2023/09/04 00:29:16;;;;;;;;;;;;;;;11.55;100.00;102697.84;5048020;28;19974;-76
2023/09/04 00:31:41;;;;;;;;;;;;;;;11.55;100.00;102707.72;5052753;28;19916;-76
2023/09/04 00:34:06;;;;;;;;;;;;;;;11.46;100.00;102711.78;5064183;28;19964;-76
2023/09/04 00:36:31;;;;;;;;;;;;;;;11.40;100.00;102706.69;5050221;28;20011;-76
2023/09/04 00:38:57;;;;;;;;;;;;;;;11.35;100.00;102709.63;5067919;28;19916;-76
2023/09/04 00:41:22;;;;;;;;;;;;;;;11.33;100.00;102708.00;5054213;28;20913;-76
2023/09/04 00:43:47;;;;;;;;;;;;;;;11.32;100.00;102711.63;5047136;28;21241;-74
2023/09/04 00:46:13;;;;;;;;;;;;;;;11.32;100.00;102714.31;5048483;28;19963;-74
2023/09/04 00:48:38;;;;;;;;;;;;;;;11.29;100.00;102704.56;5050655;28;20011;-74
2023/09/04 00:51:03;;;;;;;;;;;;;;;11.22;100.00;102714.78;5046425;28;19920;-74
2023/09/04 00:53:29;;;;;;;;;;;;;;;11.22;100.00;102714.78;5047240;28;19963;-74
2023/09/04 00:55:54;;;;;;;;;;;;;;;11.22;100.00;102716.59;5047427;28;19971;-74
2023/09/04 00:58:19;;;;;;;;;;;;;;;11.24;100.00;102714.72;5051692;28;20286;-74
2023/09/04 01:00:44;;;;;;;;;;;;;;;11.25;100.00;102722.69;5047443;28;20362;-74
2023/09/04 01:03:09;;;;;;;;;;;;;;;11.25;100.00;102716.44;5048662;28;20529;-75
2023/09/04 01:05:35;;;;;;;;;;;;;;;11.20;100.00;102705.91;5052863;28;20373;-74
2023/09/04 01:08:00;;;;;;;;;;;;;;;11.16;100.00;102704.31;5047217;28;20370;-74
2023/09/04 01:10:26;;;;;;;;;;;;;;;11.14;100.00;102698.16;5045388;28;20386;-74
2023/09/04 01:12:52;;;;;;;;;;;;;;;11.15;100.00;102699.03;5046124;28;19924;-74
2023/09/04 01:15:17;;;;;;;;;;;;;;;11.19;100.00;102695.25;5050722;28;20396;-74
2023/09/04 01:17:43;;;;;;;;;;;;;;;11.20;100.00;102699.69;5046006;28;19930;-74
2023/09/04 01:20:12;;;;;;;;;;;;;;;11.17;100.00;102694.47;5046468;28;19923;-74
2023/09/04 01:22:38;;;;;;;;;;;;;;;11.12;100.00;102696.50;5043473;28;20424;-74
2023/09/04 01:25:03;;;;;;;;;;;;;;;11.11;100.00;102701.03;5048349;28;19921;-74
2023/09/04 01:27:28;;;;;;;;;;;;;;;11.10;100.00;102700.13;5047991;28;19916;-74
2023/09/04 01:30:07;;;;;;;;;;;;;;;11.12;100.00;102700.06;5048001;28;19929;-74
2023/09/04 01:32:34;;;;;;;;;;;;;;;11.15;100.00;102699.88;5051341;28;20023;-74
2023/09/04 01:34:59;;;;;;;;;;;;;;;11.21;100.00;102704.97;5046047;28;19921;-74
2023/09/04 01:37:24;;;;;;;;;;;;;;;11.17;100.00;102695.31;5044095;28;19993;-74
2023/09/04 01:39:50;;;;;;;;;;;;;;;11.08;100.00;102693.09;5033113;28;19966;-74
2023/09/04 01:42:15;;;;;;;;;;;;;;;11.01;100.00;102705.97;5046477;28;19971;-74
2023/09/04 01:44:43;;;;;;;;;;;;;;;11.01;100.00;102697.03;5049915;28;19947;-74
2023/09/04 01:47:08;;;;;;;;;;;;;;;10.98;100.00;102695.38;5045430;28;20344;-74
2023/09/04 01:49:34;;;;;;;;;;;;;;;10.96;100.00;102694.59;5050352;28;19920;-74
2023/09/04 01:52:00;;;;;;;;;;;;;;;10.94;100.00;102685.72;5052969;28;20035;-74
2023/09/04 01:54:25;;;;;;;;;;;;;;;10.86;100.00;102688.78;5035656;28;19966;-74
2023/09/04 01:56:50;;;;;;;;;;;;;;;10.81;100.00;102682.78;5044297;28;19946;-74
2023/09/04 01:59:15;;;;;;;;;;;;;;;10.78;100.00;102685.63;5050890;28;20347;-74
2023/09/04 02:01:41;;;;;;;;;;;;;;;10.80;100.00;102679.22;5033641;28;20370;-74
2023/09/04 02:04:06;;;;;;;;;;;;;;;10.82;100.00;102683.66;5051460;28;20216;-74
2023/09/04 02:06:31;;;;;;;;;;;;;;;10.72;100.00;102683.22;5051887;28;19963;-74
2023/09/04 02:08:57;;;;;;;;;;;;;;;10.69;100.00;102676.19;5045759;28;19958;-74
2023/09/04 02:11:22;;;;;;;;;;;;;;;10.69;100.00;102675.31;5035050;28;20367;-74
2023/09/04 02:13:47;;;;;;;;;;;;;;;10.55;100.00;102665.25;5044351;28;21078;-74
2023/09/04 02:16:13;;;;;;;;;;;;;;;10.65;100.00;102685.34;5061829;28;19921;-74
2023/09/04 02:18:38;;;;;;;;;;;;;;;10.70;100.00;102685.13;5047496;28;19927;-74
2023/09/04 02:21:03;;;;;;;;;;;;;;;10.68;100.00;102677.16;5051141;28;20351;-74
2023/09/04 02:23:29;;;;;;;;;;;;;;;10.67;100.00;102675.41;5054609;28;20339;-74
2023/09/04 02:25:54;;;;;;;;;;;;;;;10.71;100.00;102681.50;5026581;28;19920;-74
2023/09/04 02:28:19;;;;;;;;;;;;;;;10.75;100.00;102686.63;5046979;28;19967;-75
2023/09/04 02:30:44;;;;;;;;;;;;;;;10.76;100.00;102682.13;5044036;28;20039;-75
2023/09/04 02:33:10;;;;;;;;;;;;;;;10.79;100.00;102680.16;5048380;28;19924;-74
2023/09/04 02:35:36;;;;;;;;;;;;;;;10.80;100.00;102681.03;5046854;28;20266;-74
2023/09/04 02:38:01;;;;;;;;;;;;;;;10.85;100.00;102678.13;5048029;28;19924;-74
2023/09/04 02:40:26;;;;;;;;;;;;;;;10.90;100.00;102678.78;5029242;28;19928;-74
2023/09/04 02:42:51;;;;;;;;;;;;;;;10.80;100.00;102678.34;5045662;28;19920;-74
2023/09/04 02:45:16;;;;;;;;;;;;;;;10.63;100.00;102682.72;5047525;28;20204;-75
2023/09/04 02:47:42;;;;;;;;;;;;;;;10.52;100.00;102685.06;5053208;28;20228;-74
2023/09/04 02:50:07;;;;;;;;;;;;;;;10.54;100.00;102682.31;5049707;28;20428;-74
2023/09/04 02:52:32;;;;;;;;;;;;;;;10.46;100.00;102685.38;5047513;28;19931;-74
2023/09/04 02:54:59;;;;;;;;;;;;;;;10.42;100.00;102684.66;5057582;28;19924;-74
2023/09/04 02:57:24;;;;;;;;;;;;;;;10.41;100.00;102680.22;5051768;28;19916;-74
2023/09/04 02:59:49;;;;;;;;;;;;;;;10.40;100.00;102680.28;5052547;28;19916;-74
2023/09/04 03:02:14;;;;;;;;;;;;;;;10.37;100.00;102675.91;5049320;28;20449;-76
2023/09/04 03:04:40;;;;;;;;;;;;;;;10.40;100.00;102681.16;5050132;28;19916;-76
2023/09/04 03:07:05;;;;;;;;;;;;;;;10.17;100.00;102647.31;5047758;28;19920;-77
2023/09/04 03:09:31;;;;;;;;;;;;;;;10.32;100.00;102675.25;5034073;28;19966;-76
2023/09/04 03:11:57;;;;;;;;;;;;;;;10.32;100.00;102670.75;5051830;28;19928;-76
2023/09/04 03:14:22;;;;;;;;;;;;;;;10.33;100.00;102668.94;5047887;28;20361;-75
2023/09/04 03:16:48;;;;;;;;;;;;;;;10.28;100.00;102668.28;5049637;28;19924;-76
2023/09/04 03:19:13;;;;;;;;;;;;;;;10.29;100.00;102670.91;5036812;28;19969;-76
2023/09/04 03:21:38;;;;;;;;;;;;;;;10.28;100.00;102669.16;5052027;28;19920;-76
2023/09/04 03:24:03;;;;;;;;;;;;;;;10.19;100.00;102662.44;5049334;28;20207;-76
2023/09/04 03:26:29;;;;;;;;;;;;;;;10.14;100.00;102655.50;5039585;28;19927;-76
2023/09/04 03:28:54;;;;;;;;;;;;;;;10.11;100.00;102650.28;5054989;28;19925;-76
2023/09/04 03:31:19;;;;;;;;;;;;;;;10.14;100.00;102650.13;5050556;28;19928;-76
2023/09/04 03:33:44;;;;;;;;;;;;;;;10.05;100.00;102652.34;5029625;28;19974;-76
2023/09/04 03:36:11;;;;;;;;;;;;;;;10.10;100.00;102645.84;5048255;28;20022;-76
2023/09/04 03:38:36;;;;;;;;;;;;;;;10.08;100.00;102645.06;5046841;28;19921;-76
2023/09/04 03:41:01;;;;;;;;;;;;;;;10.06;100.00;102646.00;5036822;28;19924;-76
2023/09/04 03:43:29;;;;;;;;;;;;;;;10.02;100.00;102644.41;5055358;28;19925;-76
2023/09/04 03:45:54;;;;;;;;;;;;;;;10.03;100.00;102634.53;5031591;28;19920;-76
2023/09/04 03:48:19;;;;;;;;;;;;;;;10.01;100.00;102639.09;5069545;28;20271;-76
2023/09/04 03:50:44;;;;;;;;;;;;;;;10.05;100.00;102640.72;5054017;28;19925;-76
2023/09/04 03:53:09;;;;;;;;;;;;;;;10.09;100.00;102650.38;5034909;28;20445;-76
2023/09/04 03:55:35;;;;;;;;;;;;;;;10.11;100.00;102645.81;5048306;28;20379;-76
2023/09/04 03:58:00;;;;;;;;;;;;;;;10.15;100.00;102639.34;5052915;28;20215;-76
2023/09/04 04:00:25;;;;;;;;;;;;;;;10.20;100.00;102634.59;5052786;28;20287;-76
2023/09/04 04:02:53;;;;;;;;;;;;;;;10.09;100.00;102639.63;5054915;28;20005;-76
2023/09/04 04:05:20;;;;;;;;;;;;;;;10.03;100.00;102635.44;5048074;28;19925;-76
2023/09/04 04:07:45;;;;;;;;;;;;;;;9.99;100.00;102630.25;5035525;28;20412;-76
2023/09/04 04:10:11;;;;;;;;;;;;;;;9.96;100.00;102635.75;5051784;28;19921;-76
2023/09/04 04:12:36;;;;;;;;;;;;;;;9.92;100.00;102628.81;5046818;28;20430;-75
2023/09/04 04:15:04;;;;;;;;;;;;;;;9.86;100.00;102638.91;5036346;28;20169;-76
2023/09/04 04:17:29;;;;;;;;;;;;;;;9.82;100.00;102628.34;5034820;28;19924;-76
2023/09/04 04:19:54;;;;;;;;;;;;;;;9.77;100.00;102630.41;5050437;28;19970;-76
2023/09/04 04:22:20;;;;;;;;;;;;;;;9.76;100.00;102629.50;5042888;28;19928;-77
2023/09/04 04:24:45;;;;;;;;;;;;;;;9.74;100.00;102632.28;5063607;28;20341;-76
2023/09/04 04:27:12;;;;;;;;;;;;;;;9.73;100.00;102632.34;5053463;28;19920;-76
2023/09/04 04:29:37;;;;;;;;;;;;;;;9.75;100.00;102623.28;5046687;28;19936;-76
2023/09/04 04:32:03;;;;;;;;;;;;;;;9.78;100.00;102626.78;5030361;28;19925;-76
2023/09/04 04:34:28;;;;;;;;;;;;;;;9.82;100.00;102625.66;5045093;28;19983;-76
2023/09/04 04:36:55;;;;;;;;;;;;;;;9.82;100.00;102631.91;5054628;28;20007;-76
2023/09/04 04:39:20;;;;;;;;;;;;;;;9.87;100.00;102635.28;5050754;28;20370;-77
2023/09/04 04:41:46;;;;;;;;;;;;;;;9.93;100.00;102627.88;5044928;28;19917;-76
2023/09/04 04:44:11;;;;;;;;;;;;;;;9.97;100.00;102629.47;5031898;28;19929;-76
2023/09/04 04:46:36;;;;;;;;;;;;;;;9.96;100.00;102635.75;5046009;28;19921;-76
2023/09/04 04:49:01;;;;;;;;;;;;;;;9.95;100.00;102629.53;5035068;28;19920;-76
2023/09/04 04:51:26;;;;;;;;;;;;;;;10.00;100.00;102634.69;5032335;28;19920;-76
2023/09/04 04:53:52;;;;;;;;;;;;;;;10.08;100.00;102637.00;5045518;28;20413;-76
2023/09/04 04:56:17;;;;;;;;;;;;;;;10.14;100.00;102640.28;5052796;28;20047;-76
2023/09/04 04:58:42;;;;;;;;;;;;;;;10.14;100.00;102639.41;5050138;28;19920;-76
2023/09/04 05:01:07;;;;;;;;;;;;;;;10.22;100.00;102639.91;5058957;28;19968;-76
2023/09/04 05:03:32;;;;;;;;;;;;;;;10.48;100.00;102635.13;5031938;28;19931;-76
2023/09/04 05:05:58;;;;;;;;;;;;;;;10.58;100.00;102638.25;5040142;28;19931;-76
2023/09/04 05:08:23;;;;;;;;;;;;;;;10.64;100.00;102643.31;5039944;28;19967;-76
2023/09/04 05:10:57;;;;;;;;;;;;;;;10.71;100.00;102630.44;5056618;28;19959;-76
2023/09/04 05:13:22;;;;;;;;;;;;;;;10.76;100.00;102629.25;5032030;28;19924;-76
2023/09/04 05:15:48;;;;;;;;;;;;;;;10.83;100.00;102624.47;5027717;28;20061;-76
2023/09/04 05:18:13;;;;;;;;;;;;;;;10.88;100.00;102613.47;5032335;28;20011;-76
2023/09/04 05:20:38;;;;;;;;;;;;;;;10.94;100.00;102614.03;5067037;28;19920;-76
2023/09/04 05:23:03;;;;;;;;;;;;;;;10.99;100.00;102608.41;5028591;28;19921;-76
2023/09/04 05:25:28;;;;;;;;;;;;;;;11.12;100.00;102614.06;5051797;28;20014;-76
2023/09/04 05:27:54;;;;;;;;;;;;;;;11.29;100.00;102618.53;5046245;28;20065;-76
2023/09/04 05:30:19;;;;;;;;;;;;;;;11.45;100.00;102617.72;5032010;28;20398;-76
2023/09/04 05:32:44;;;;;;;;;;;;;;;11.57;100.00;102618.88;5050976;28;20592;-76
2023/09/04 05:35:09;;;;;;;;;;;;;;;11.70;100.00;102626.22;5052178;28;19962;-75
2023/09/04 05:37:34;;;;;;;;;;;;;;;11.80;100.00;102623.88;5048305;28;20267;-76
2023/09/04 05:40:00;;;;;;;;;;;;;;;11.97;100.00;102628.34;5052831;28;19920;-76
2023/09/04 05:42:25;;;;;;;;;;;;;;;12.07;100.00;102628.75;5047107;28;19963;-76
2023/09/04 05:44:50;;;;;;;;;;;;;;;12.26;100.00;102633.09;5050405;28;19995;-76
2023/09/04 05:47:15;;;;;;;;;;;;;;;12.41;100.00;102628.66;5049098;28;19942;-76
2023/09/04 05:49:40;;;;;;;;;;;;;;;12.56;100.00;102630.47;5049755;28;20329;-76
2023/09/04 05:52:06;;;;;;;;;;;;;;;12.71;100.00;102628.69;5053697;28;20381;-76
2023/09/04 05:54:31;;;;;;;;;;;;;;;12.83;100.00;102624.44;5034289;28;20033;-77
2023/09/04 05:56:56;;;;;;;;;;;;;;;12.98;100.00;102624.47;5066897;28;19920;-76
2023/09/04 05:59:21;;;;;;;;;;;;;;;13.13;100.00;102630.78;5050591;28;20194;-77
2023/09/04 06:01:47;;;;;;;;;;;;;;;13.24;100.00;102638.22;5036895;28;20282;-77
2023/09/04 06:04:12;;;;;;;;;;;;;;;13.34;100.00;102628.59;5033071;28;19927;-76
2023/09/04 06:06:38;;;;;;;;;;;;;;;13.42;100.00;102628.16;5050992;28;19966;-76
2023/09/04 06:09:04;;;;;;;;;;;;;;;13.46;100.00;102629.72;5048010;28;20009;-76
2023/09/04 06:11:29;;;;;;;;;;;;;;;13.59;100.00;102624.44;5053965;28;19928;-76
2023/09/04 06:13:55;;;;;;;;;;;;;;;13.67;100.00;102630.19;5049902;28;19971;-76
2023/09/04 06:16:20;;;;;;;;;;;;;;;13.87;100.00;102630.78;5033381;28;20015;-76
2023/09/04 06:18:45;;;;;;;;;;;;;;;14.02;100.00;102631.66;5051254;28;20412;-77
2023/09/04 06:21:10;;;;;;;;;;;;;;;14.13;100.00;102634.50;5047781;28;20325;-75
2023/09/04 06:23:36;;;;;;;;;;;;;;;14.31;100.00;102628.88;5034029;28;19924;-75
2023/09/04 06:26:01;;;;;;;;;;;;;;;14.44;100.00;102628.91;5053832;28;19925;-76
2023/09/04 06:28:27;;;;;;;;;;;;;;;14.58;100.00;102628.91;5069338;28;19921;-75
2023/09/04 06:30:52;;;;;;;;;;;;;;;14.72;100.00;102619.00;5039480;28;19925;-75
2023/09/04 06:33:19;;;;;;;;;;;;;;;14.79;100.00;102626.63;5052779;28;20633;-75
2023/09/04 06:35:44;;;;;;;;;;;;;;;14.97;100.00;102626.34;5056282;28;19927;-74
2023/09/04 06:38:12;;;;;;;;;;;;;;;15.10;100.00;102619.09;5053153;28;19920;-75
2023/09/04 06:40:37;;;;;;;;;;;;;;;15.23;100.00;102618.25;5052716;28;19967;-75
2023/09/04 06:43:03;;;;;;;;;;;;;;;15.36;100.00;102619.13;5036223;28;20014;-75
2023/09/04 06:45:28;;;;;;;;;;;;;;;15.45;100.00;102618.50;5049202;28;19917;-77
2023/09/04 06:47:53;;;;;;;;;;;;;;;15.60;100.00;102615.69;5050604;28;20366;-74
2023/09/04 06:50:18;;;;;;;;;;;;;;;15.71;100.00;102612.22;5055626;28;19931;-75
2023/09/04 06:52:43;;;;;;;;;;;;;;;15.78;100.00;102612.63;5038710;28;19969;-74
2023/09/04 06:55:09;;;;;;;;;;;;;;;15.88;100.00;102620.00;5052435;28;20216;-75
2023/09/04 06:57:34;;;;;;;;;;;;;;;16.05;100.00;102612.47;5052555;28;19924;-74
2023/09/04 07:00:06;;;;;;;;;;;;;;;16.12;100.00;102611.06;5052507;28;20003;-74
2023/09/04 07:02:32;;;;;;;;;;;;;;;16.21;100.00;102609.50;5053847;28;20322;-75
2023/09/04 07:04:57;;;;;;;;;;;;;;;16.26;100.00;102610.03;5036176;28;19931;-75
2023/09/04 07:07:22;;;;;;;;;;;;;;;16.37;100.00;102614.66;5035303;28;20015;-75
2023/09/04 07:09:48;;;;;;;;;;;;;;;16.45;100.00;102614.97;5053198;28;21016;-74
2023/09/04 07:12:13;;;;;;;;;;;;;;;16.60;100.00;102617.50;5052761;28;19927;-74
2023/09/04 07:14:39;;;;;;;;;;;;;;;16.67;100.00;102624.19;5053951;28;19964;-75
2023/09/04 07:17:05;;;;;;;;;;;;;;;16.74;100.00;102625.47;5051778;28;19943;-74
2023/09/04 07:19:30;;;;;;;;;;;;;;;16.84;100.00;102624.75;5052811;28;20366;-74
2023/09/04 07:21:55;;;;;;;;;;;;;;;17.04;100.00;102624.13;5050322;28;20370;-74
2023/09/04 07:24:20;;;;;;;;;;;;;;;17.19;100.00;102622.06;5064377;28;19932;-74
2023/09/04 07:26:45;;;;;;;;;;;;;;;17.33;100.00;102617.41;5053178;28;19942;-74
2023/09/04 07:29:11;;;;;;;;;;;;;;;17.45;100.00;102624.59;5051491;28;19928;-74
2023/09/04 07:31:36;;;;;;;;;;;;;;;17.59;100.00;102619.91;5034218;28;20239;-75
2023/09/04 07:34:01;;;;;;;;;;;;;;;17.71;100.00;102608.06;5051212;28;20703;-74
2023/09/04 07:36:26;;;;;;;;;;;;;;;17.80;100.00;102620.03;5054607;28;20408;-75
2023/09/04 07:38:52;;;;;;;;;;;;;;;17.89;100.00;102616.56;5068634;28;19961;-75
2023/09/04 07:41:17;;;;;;;;;;;;;;;17.94;100.00;102613.47;5053312;28;19917;-77
2023/09/04 07:43:42;;;;;;;;;;;;;;;18.10;100.00;102608.53;5054203;28;19920;-74
2023/09/04 07:46:07;;;;;;;;;;;;;;;18.28;100.00;102610.72;5049427;28;19944;-75
2023/09/04 07:48:35;;;;;;;;;;;;;;;18.35;100.00;102611.09;5053196;28;19951;-75
2023/09/04 07:51:01;;;;;;;;;;;;;;;18.46;100.00;102602.88;5048415;28;20713;-76
2023/09/04 07:53:26;;;;;;;;;;;;;;;18.62;100.00;102609.78;5050628;28;19928;-76
2023/09/04 07:55:51;;;;;;;;;;;;;;;18.64;100.00;102605.06;5051843;28;20356;-75
2023/09/04 07:58:16;;;;;;;;;;;;;;;18.80;100.00;102608.19;5052501;28;19916;-73
2023/09/04 08:00:43;;;;;;;;;;;;;;;18.90;100.00;102597.38;5067373;28;20031;-74
2023/09/04 08:03:09;;;;;;;;;;;;;;;19.01;100.00;102605.53;5050356;28;19921;-74
2023/09/04 08:05:34;;;;;;;;;;;;;;;19.23;100.00;102608.22;5030098;28;20286;-73
2023/09/04 08:07:59;;;;;;;;;;;;;;;19.22;100.00;102606.50;5047589;28;19925;-75
2023/09/04 08:10:25;;;;;;;;;;;;;;;19.34;100.00;102606.28;5052614;28;20236;-74
2023/09/04 08:12:50;;;;;;;;;;;;;;;19.44;100.00;102606.38;5048885;28;19966;-73
2023/09/04 08:15:15;;;;;;;;;;;;;;;19.57;100.00;102605.28;5049065;28;19931;-74
2023/09/04 08:17:41;;;;;;;;;;;;;;;19.57;100.00;102614.31;5048691;28;20364;-75
2023/09/04 08:20:06;;;;;;;;;;;;;;;19.70;100.00;102605.03;5048471;28;20216;-74
2023/09/04 08:22:31;;;;;;;;;;;;;;;19.87;100.00;102592.63;5051961;28;19920;-74
2023/09/04 08:24:57;;;;;;;;;;;;;;;20.00;100.00;102606.88;5028854;28;20767;-74
2023/09/04 08:27:22;;;;;;;;;;;;;;;20.01;100.00;102611.34;5052177;28;19916;-74
2023/09/04 08:29:49;;;;;;;;;;;;;;;20.19;100.00;102613.41;5027753;28;19928;-75
2023/09/04 08:32:15;;;;;;;;;;;;;;;20.31;100.00;102606.81;5044187;28;19924;-74
2023/09/04 08:34:40;;;;;;;;;;;;;;;20.28;100.00;102600.81;5050786;28;19968;-77
2023/09/04 08:37:05;;;;;;;;;;;;;;;20.33;100.00;102604.81;5027796;28;20035;-74
2023/09/04 08:39:31;;;;;;;;;;;;;;;20.44;100.00;102600.25;5046706;28;19926;-75
2023/09/04 08:41:56;;;;;;;;;;;;;;;20.45;100.00;102593.78;5028064;28;19917;-74
2023/09/04 08:44:21;;;;;;;;;;;;;;;20.51;100.00;102587.78;5047822;28;19943;-76
2023/09/04 08:46:47;;;;;;;;;;;;;;;20.60;100.00;102586.88;5028162;28;20018;-74
2023/09/04 08:49:12;;;;;;;;;;;;;;;20.74;100.00;102593.78;5047379;28;19920;-74
2023/09/04 08:51:37;;;;;;;;;;;;;;;20.94;100.00;102588.34;5035395;28;19943;-74
2023/09/04 08:54:04;;;;;;;;;;;;;;;21.14;100.00;102580.97;5048354;28;20058;-75
2023/09/04 08:56:30;;;;;;;;;;;;;;;21.22;100.00;102578.38;5047200;28;19986;-74
2023/09/04 08:58:55;;;;;;;;;;;;;;;21.39;100.00;102567.66;5045922;28;19924;-74
2023/09/04 09:01:20;;;;;;;;;;;;;;;21.40;100.00;102577.59;5048801;28;19977;-73
2023/09/04 09:03:45;;;;;;;;;;;;;;;21.40;100.00;102577.59;5066903;28;20388;-76
2023/09/04 09:06:11;;;;;;;;;;;;;;;21.31;100.00;102576.63;5028981;28;19959;-73
2023/09/04 09:08:36;;;;;;;;;;;;;;;21.49;100.00;102581.28;5047010;28;20028;-76
2023/09/04 09:11:03;;;;;;;;;;;;;;;21.71;100.00;102572.78;5050003;28;20397;-74
2023/09/04 09:13:28;;;;;;;;;;;;;;;21.78;100.00;102570.28;5047392;28;19931;-74
2023/09/04 09:15:54;;;;;;;;;;;;;;;21.93;100.00;102573.38;5047028;28;19924;-73
2023/09/04 09:18:38;;;;;;;;;;;;;;;21.94;100.00;102572.34;5048631;28;19952;-74
2023/09/04 09:21:19;;;;;;;;;;;;;;;21.93;100.00;102575.22;5044666;28;20282;-77
2023/09/04 09:23:44;;;;;;;;;;;;;;;21.94;100.00;102572.34;5049223;28;19954;-74
2023/09/04 09:26:10;;;;;;;;;;;;;;;22.17;100.00;102561.81;5044914;28;19968;-73
2023/09/04 09:28:35;;;;;;;;;;;;;;;22.21;100.00;102567.84;5045474;28;20035;-74
2023/09/04 09:31:00;;;;;;;;;;;;;;;22.20;100.00;102559.78;5043739;28;19931;-75
2023/09/04 09:33:25;;;;;;;;;;;;;;;22.43;100.00;102558.34;5044011;28;19928;-74
2023/09/04 09:35:50;;;;;;;;;;;;;;;22.81;100.00;102576.47;5065068;28;19917;-74
2023/09/04 09:38:16;;;;;;;;;;;;;;;23.00;100.00;102573.53;5044971;28;19973;-74
2023/09/04 09:40:43;;;;;;;;;;;;;;;23.17;100.00;102559.97;5047494;28;19946;-73
2023/09/04 09:43:09;;;;;;;;;;;;;;;23.41;100.00;102561.16;5042654;28;20502;-74
2023/09/04 09:45:34;;;;;;;;;;;;;;;23.16;100.00;102561.81;5047422;28;19920;-75
2023/09/04 09:48:03;;;;;;;;;;;;;;;23.16;100.00;102569.19;5048583;28;20335;-74
2023/09/04 09:50:28;;;;;;;;;;;;;;;23.43;100.00;102561.84;5046699;28;19917;-73
2023/09/04 09:53:00;;;;;;;;;;;;;;;23.72;100.00;102563.31;5046743;28;20222;-73
2023/09/04 09:55:26;;;;;;;;;;;;;;;23.79;100.00;102565.25;5031010;28;19970;-73
2023/09/04 09:57:52;;;;;;;;;;;;;;;23.85;90.64;102571.09;5048544;28;19921;-73
2023/09/04 10:00:17;;;;;;;;;;;;;;;24.05;92.28;102569.84;5044635;28;19928;-73
2023/09/04 10:02:43;;;;;;;;;;;;;;;24.06;89.59;102563.31;5062496;28;19924;-74
2023/09/04 10:05:09;;;;;;;;;;;;;;;23.90;91.17;102557.72;5048727;28;19927;-77
2023/09/04 10:07:35;;;;;;;;;;;;;;;23.82;92.92;102555.81;5034368;28;19920;-74
2023/09/04 10:10:05;;;;;;;;;;;;;;;24.04;100.00;102548.03;5025291;28;20232;-74
2023/09/04 10:12:30;;;;;;;;;;;;;;;24.32;91.80;102545.88;5047706;28;20274;-73
2023/09/04 10:14:56;;;;;;;;;;;;;;;24.34;88.03;102543.81;5053155;28;19925;-74
2023/09/04 10:17:23;;;;;;;;;;;;;;;24.39;89.14;102546.03;5044878;28;19920;-73
2023/09/04 10:19:48;;;;;;;;;;;;;;;24.77;93.94;102542.81;5063071;28;19956;-74
2023/09/04 10:22:27;;;;;;;;;;;;;;;25.07;100.00;102535.72;5050727;28;20035;-73
2023/09/04 10:24:56;;;;;;;;;;;;;;;24.94;84.05;102546.41;5045575;28;19928;-73
2023/09/04 10:27:22;;;;;;;;;;;;;;;24.74;77.59;102541.28;5049408;28;19927;-76
2023/09/04 10:29:53;;;;;;;;;;;;;;;24.97;73.59;102544.16;5042797;28;20345;-75
2023/09/04 10:32:18;;;;;;;;;;;;;;;24.99;76.36;102544.00;5049260;28;20482;-74
2023/09/04 10:34:44;;;;;;;;;;;;;;;24.99;74.30;102544.84;5048706;28;20023;-74
2023/09/04 10:37:09;;;;;;;;;;;;;;;24.98;65.94;102528.53;5050014;28;19921;-74
2023/09/04 10:39:35;;;;;;;;;;;;;;;25.12;75.31;102533.28;5043164;28;19967;-75
2023/09/04 10:42:00;;;;;;;;;;;;;;;25.18;68.69;102528.97;5046819;28;19963;-75
2023/09/04 10:44:44;;;;;;;;;;;;;;;25.23;68.47;102528.47;5033206;28;19924;-73
2023/09/04 10:47:10;;;;;;;;;;;;;;;25.54;71.40;102527.72;5049459;28;20270;-75
2023/09/04 10:49:35;;;;;;;;;;;;;;;26.02;67.97;102522.97;5030668;28;19920;-73
2023/09/04 10:52:00;;;;;;;;;;;;;;;26.13;74.24;102527.22;5067651;28;19987;-73
2023/09/04 10:54:26;;;;;;;;;;;;;;;25.87;63.94;102522.00;5046889;28;19981;-79
2023/09/04 10:56:52;;;;;;;;;;;;;;;26.08;66.34;102526.03;5048343;28;19928;-74
2023/09/04 10:59:17;;;;;;;;;;;;;;;26.28;59.92;102521.78;5042068;28;20024;-74
2023/09/04 11:01:42;;;;;;;;;;;;;;;26.67;61.42;102511.63;5030437;28;19970;-74
2023/09/04 11:04:08;;;;;;;;;;;;;;;27.21;60.21;102513.31;5044559;28;20128;-73
2023/09/04 11:06:34;;;;;;;;;;;;;;;27.04;55.03;102504.38;5047358;28;19955;-75
2023/09/04 11:09:00;;;;;;;;;;;;;;;26.96;55.71;102498.97;5047823;28;20951;-76
2023/09/04 11:11:25;;;;;;;;;;;;;;;26.71;62.15;102499.22;5052679;28;19932;-76
2023/09/04 11:13:54;;;;;;;;;;;;;;;27.29;59.37;102494.97;5051823;28;19931;-73
2023/09/04 11:16:19;;;;;;;;;;;;;;;27.68;55.61;102486.38;5047267;28;19931;-73
2023/09/04 11:18:44;;;;;;;;;;;;;;;28.12;54.69;102497.47;5048361;28;19920;-74
2023/09/04 11:21:10;;;;;;;;;;;;;;;28.53;53.03;102495.91;5050908;28;20097;-74
2023/09/04 11:23:35;;;;;;;;;;;;;;;28.43;48.17;102488.84;5031419;28;20149;-73
2023/09/04 11:26:02;;;;;;;;;;;;;;;28.59;52.95;102490.47;5033377;28;20011;-74
2023/09/04 11:28:27;;;;;;;;;;;;;;;28.63;55.88;102487.28;5047651;28;19920;-75
2023/09/04 11:30:53;;;;;;;;;;;;;;;28.94;49.36;102467.56;5037011;28;19963;-74
2023/09/04 11:33:20;;;;;;;;;;;;;;;29.56;48.62;102472.34;5044535;28;19971;-73
2023/09/04 11:35:45;;;;;;;;;;;;;;;29.86;45.04;102466.44;5032618;28;20350;-74
2023/09/04 11:38:24;;;;;;;;;;;;;;;30.15;47.90;102461.63;5052720;28;19926;-73
2023/09/04 11:40:49;;;;;;;;;;;;;;;30.30;45.27;102462.25;5054402;28;19928;-75
2023/09/04 11:43:14;;;;;;;;;;;;;;;30.35;47.16;102469.91;5047190;28;19928;-73
2023/09/04 11:45:40;;;;;;;;;;;;;;;30.08;43.91;102473.53;5050779;28;21014;-78
2023/09/04 11:48:05;;;;;;;;;;;;;;;29.12;44.30;102457.84;5071072;28;19960;-75
2023/09/04 11:50:30;;;;;;;;;;;;;;;28.87;45.21;102456.44;5052033;28;20015;-77
2023/09/04 11:52:56;;;;;;;;;;;;;;;28.57;46.04;102455.78;5054360;28;19928;-78
2023/09/04 11:55:24;;;;;;;;;;;;;;;29.06;46.05;102462.31;5044872;28;19943;-79
2023/09/04 11:57:49;;;;;;;;;;;;;;;29.95;44.96;102465.16;5046184;28;20437;-76
2023/09/04 12:00:15;;;;;;;;;;;;;;;30.80;43.13;102460.94;5048296;28;19931;-76
2023/09/04 12:02:43;;;;;;;;;;;;;;;32.09;39.57;102454.59;5048753;28;19974;-75
2023/09/04 12:05:09;;;;;;;;;;;;;;;32.25;38.95;102458.72;5046374;28;20225;-74
2023/09/04 12:07:35;;;;;;;;;;;;;;;32.39;41.60;102419.75;5054767;28;19920;-73
2023/09/04 12:10:00;;;;;;;;;;;;;;;33.26;37.53;102452.16;5045439;28;19924;-74
2023/09/04 12:12:25;;;;;;;;;;;;;;;32.43;37.89;102446.00;5050576;28;20730;-74
2023/09/04 12:14:51;;;;;;;;;;;;;;;31.56;40.83;102439.13;5053038;28;20321;-75
2023/09/04 12:17:17;;;;;;;;;;;;;;;32.30;36.34;102442.25;5051298;28;20526;-77
2023/09/04 12:19:42;;;;;;;;;;;;;;;32.66;38.18;102442.56;5051238;28;19928;-75